createdAt,value
2023-05-03T00:01:14.128Z,102296.13
2023-05-03T00:03:40.601Z,102295.63
2023-05-03T00:06:14.693Z,102292.81
2023-05-03T00:08:41.520Z,102295.28
2023-05-03T00:11:08.838Z,102296.34
2023-05-03T00:13:35.592Z,102298.69
2023-05-03T00:16:02.067Z,102284.53
2023-05-03T00:18:29.211Z,102287.88
2023-05-03T00:20:55.662Z,102288.41
2023-05-03T00:23:22.199Z,102287.03
2023-05-03T00:25:58.820Z,102275.38
2023-05-03T00:28:26.217Z,102271.59
2023-05-03T00:30:53.304Z,102265.22
2023-05-03T00:33:19.743Z,102270.63
2023-05-03T00:35:46.257Z,102265.66
2023-05-03T00:38:14.316Z,102279.25
2023-05-03T00:40:40.970Z,102265.72
2023-05-03T00:43:07.764Z,102274.44
2023-05-03T00:45:34.881Z,102280.66
2023-05-03T00:48:01.786Z,102276.88
2023-05-03T00:50:28.976Z,102285.72
2023-05-03T00:52:55.923Z,102290.06
2023-05-03T00:55:22.841Z,102292.28
2023-05-03T00:57:49.355Z,102289.22
2023-05-03T01:00:16.594Z,102283.25
2023-05-03T01:02:43.127Z,102287.22
2023-05-03T01:05:10.929Z,102287.16
2023-05-03T01:07:53.447Z,102286.72
2023-05-03T01:10:27.898Z,102284.00
2023-05-03T01:13:23.127Z,102283.16
2023-05-03T01:16:01.682Z,102284.94
2023-05-03T01:18:32.330Z,102278.47
2023-05-03T01:21:00.188Z,102279.13
2023-05-03T01:24:02.744Z,102269.84
2023-05-03T01:26:29.053Z,102282.22
2023-05-03T01:28:55.853Z,102274.41
2023-05-03T01:31:52.635Z,102274.78
2023-05-03T01:34:50.811Z,102279.78
2023-05-03T01:37:18.419Z,102279.22
2023-05-03T01:39:48.891Z,102275.44
2023-05-03T01:42:15.851Z,102275.44
2023-05-03T01:44:43.635Z,102276.50
2023-05-03T01:47:10.479Z,102272.78
2023-05-03T01:49:36.784Z,102275.31
2023-05-03T01:52:03.281Z,102273.56
2023-05-03T01:54:29.845Z,102280.06
2023-05-03T01:56:56.407Z,102287.31
2023-05-03T01:59:22.908Z,102287.72
2023-05-03T02:01:49.306Z,102289.31
2023-05-03T02:04:15.754Z,102289.69
2023-05-03T02:06:42.402Z,102294.72
2023-05-03T02:09:09.084Z,102295.78
2023-05-03T02:11:35.447Z,102300.44
2023-05-03T02:14:01.874Z,102291.19
2023-05-03T02:16:29.195Z,102295.25
2023-05-03T02:18:59.834Z,102304.28
2023-05-03T02:21:27.014Z,102304.09
2023-05-03T02:23:54.177Z,102303.88
2023-05-03T02:26:20.980Z,102304.84
2023-05-03T02:28:47.346Z,102306.22
2023-05-03T02:31:13.775Z,102315.38
2023-05-03T02:33:40.163Z,102312.94
2023-05-03T02:36:06.948Z,102318.34
2023-05-03T02:38:33.394Z,102318.78
2023-05-03T02:40:59.875Z,102315.91
2023-05-03T02:43:26.285Z,102321.00
2023-05-03T02:45:52.642Z,102318.22
2023-05-03T02:48:19.135Z,102326.91
2023-05-03T02:50:45.761Z,102330.25
2023-05-03T02:53:12.455Z,102329.28
2023-05-03T02:55:39.814Z,102327.31
2023-05-03T02:58:06.350Z,102325.03
2023-05-03T03:00:32.723Z,102322.69
2023-05-03T03:02:59.351Z,102323.38
2023-05-03T03:05:25.912Z,102322.78
2023-05-03T03:07:52.227Z,102319.91
2023-05-03T03:10:18.844Z,102318.59
2023-05-03T03:12:45.869Z,102315.41
2023-05-03T03:15:13.363Z,102313.03
2023-05-03T03:17:39.807Z,102316.69
2023-05-03T03:20:07.714Z,102305.44
2023-05-03T03:22:34.201Z,102307.16
2023-05-03T03:25:00.529Z,102306.66
2023-05-03T03:27:26.823Z,102309.25
2023-05-03T03:29:53.268Z,102301.69
2023-05-03T03:32:19.626Z,102301.56
2023-05-03T03:34:45.978Z,102302.09
2023-05-03T03:37:12.473Z,102299.75
2023-05-03T03:39:40.102Z,102304.09
2023-05-03T03:42:07.881Z,102290.38
2023-05-03T03:44:34.329Z,102296.72
2023-05-03T03:47:00.802Z,102300.94
2023-05-03T03:49:27.189Z,102307.00
2023-05-03T03:51:53.590Z,102297.72
2023-05-03T03:54:19.938Z,102300.09
2023-05-03T03:56:46.282Z,102292.66
2023-05-03T03:59:12.771Z,102289.69
2023-05-03T04:01:39.206Z,102286.66
2023-05-03T04:04:05.786Z,102289.06
2023-05-03T04:06:33.192Z,102290.06
2023-05-03T04:08:59.589Z,102290.44
2023-05-03T04:11:26.235Z,102289.44
2023-05-03T04:13:52.805Z,102280.03
2023-05-03T04:16:19.281Z,102286.94
2023-05-03T04:18:45.680Z,102283.59
2023-05-03T04:21:12.094Z,102279.56
2023-05-03T04:23:39.301Z,102272.69
2023-05-03T04:26:05.877Z,102279.03
2023-05-03T04:28:32.946Z,102274.63
2023-05-03T04:30:59.364Z,102260.50
2023-05-03T04:33:25.948Z,102262.53
2023-05-03T04:35:53.956Z,102262.03
2023-05-03T04:38:20.488Z,102263.56
2023-05-03T04:40:47.248Z,102260.22
2023-05-03T04:43:13.690Z,102267.63
2023-05-03T04:45:40.936Z,102281.03
2023-05-03T04:48:07.968Z,102286.03
2023-05-03T04:50:34.442Z,102286.41
2023-05-03T04:53:01.145Z,102285.75
2023-05-03T04:55:27.702Z,102294.16
2023-05-03T04:57:56.254Z,102304.94
2023-05-03T05:00:23.606Z,102306.59
2023-05-03T05:02:50.918Z,102312.97
2023-05-03T05:05:18.238Z,102316.84
2023-05-03T05:07:46.596Z,102313.94
2023-05-03T05:10:14.480Z,102317.13
2023-05-03T05:12:41.003Z,102304.44
2023-05-03T05:15:07.802Z,102308.75
2023-05-03T05:17:34.493Z,102312.78
2023-05-03T05:20:01.335Z,102317.44
2023-05-03T05:22:27.964Z,102307.97
2023-05-03T05:24:54.968Z,102313.97
2023-05-03T05:27:21.387Z,102315.97
2023-05-03T05:29:47.774Z,102319.63
2023-05-03T05:32:14.225Z,102320.44
2023-05-03T05:34:44.972Z,102317.19
2023-05-03T05:37:12.476Z,102330.25
2023-05-03T05:39:38.870Z,102323.09
2023-05-03T05:42:05.485Z,102329.38
2023-05-03T05:44:31.933Z,102334.25
2023-05-03T05:46:58.518Z,102343.59
2023-05-03T05:49:25.012Z,102348.53
2023-05-03T05:51:51.357Z,102354.59
2023-05-03T05:54:17.782Z,102354.25
2023-05-03T05:56:44.132Z,102354.41
2023-05-03T05:59:11.143Z,102353.84
2023-05-03T06:01:41.696Z,102355.97
2023-05-03T06:04:08.626Z,102353.69
2023-05-03T06:06:35.130Z,102343.88
2023-05-03T06:09:09.855Z,102353.63
2023-05-03T06:11:43.592Z,102353.34
2023-05-03T06:14:10.202Z,102355.53
2023-05-03T06:16:37.376Z,102355.22
2023-05-03T06:19:05.022Z,102359.06
2023-05-03T06:21:31.889Z,102358.13
2023-05-03T06:23:58.387Z,102356.97
2023-05-03T06:26:24.915Z,102356.03
2023-05-03T06:28:52.477Z,102351.06
2023-05-03T06:31:19.087Z,102355.16
2023-05-03T06:33:46.051Z,102362.91
2023-05-03T06:36:13.122Z,102354.19
2023-05-03T06:38:40.088Z,102361.16
2023-05-03T06:41:06.492Z,102363.94
2023-05-03T06:43:33.140Z,102363.75
2023-05-03T06:46:00.030Z,102358.59
2023-05-03T06:48:27.887Z,102360.47
2023-05-03T06:50:55.097Z,102365.97
2023-05-03T06:53:21.566Z,102367.44
2023-05-03T06:55:47.893Z,102363.06
2023-05-03T06:58:14.633Z,102368.50
2023-05-03T07:00:41.313Z,102362.53
2023-05-03T07:03:07.946Z,102358.19
2023-05-03T07:05:34.533Z,102363.41
2023-05-03T07:08:01.178Z,102354.63
2023-05-03T07:10:31.366Z,102351.72
2023-05-03T07:12:58.186Z,102353.81
2023-05-03T07:15:24.709Z,102346.69
2023-05-03T07:17:51.168Z,102349.00
2023-05-03T07:20:17.606Z,102354.19
2023-05-03T07:22:44.626Z,102342.28
2023-05-03T07:25:12.368Z,102342.28
2023-05-03T07:27:38.886Z,102352.69
2023-05-03T07:30:06.634Z,102347.78
2023-05-03T07:32:33.239Z,102343.13
2023-05-03T07:34:59.705Z,102344.88
2023-05-03T07:37:27.530Z,102344.81
2023-05-03T07:39:53.936Z,102331.34
2023-05-03T07:42:20.545Z,102335.72
2023-05-03T07:44:47.083Z,102325.59
2023-05-03T07:47:13.509Z,102334.09
2023-05-03T07:49:41.169Z,102330.50
2023-05-03T07:52:07.640Z,102324.59
2023-05-03T07:54:34.112Z,102325.97
2023-05-03T07:57:00.773Z,102322.09
2023-05-03T07:59:27.430Z,102321.16
2023-05-03T08:01:53.860Z,102318.56
2023-05-03T08:04:20.737Z,102314.41
2023-05-03T08:06:47.695Z,102309.97
2023-05-03T08:09:14.179Z,102309.84
2023-05-03T08:11:43.173Z,102309.34
2023-05-03T08:14:10.503Z,102306.13
2023-05-03T08:16:36.954Z,102299.66
2023-05-03T08:19:04.929Z,102304.59
2023-05-03T08:21:33.291Z,102304.19
2023-05-03T08:24:00.793Z,102313.66
2023-05-03T08:26:28.682Z,102313.66
2023-05-03T08:28:55.313Z,102312.72
2023-05-03T08:31:21.814Z,102306.63
2023-05-03T08:33:48.320Z,102305.16
2023-05-03T08:36:14.907Z,102306.28
2023-05-03T08:38:41.581Z,102292.50
2023-05-03T08:41:26.163Z,102291.00
2023-05-03T08:43:54.356Z,102296.97
2023-05-03T08:46:21.131Z,102288.06
2023-05-03T08:48:48.548Z,102292.44
2023-05-03T08:51:16.970Z,102292.53
2023-05-03T08:53:43.448Z,102288.94
2023-05-03T08:56:10.895Z,102293.84
2023-05-03T08:58:37.735Z,102294.03
2023-05-03T09:01:08.838Z,102296.19
2023-05-03T09:03:36.891Z,102292.09
2023-05-03T09:06:18.488Z,102280.63
2023-05-03T09:08:45.061Z,102277.06
2023-05-03T09:11:21.406Z,102270.00
2023-05-03T09:13:47.882Z,102288.63
2023-05-03T09:16:29.409Z,102282.19
2023-05-03T09:19:09.302Z,102281.25
2023-05-03T09:21:36.295Z,102278.00
2023-05-03T09:24:11.738Z,102270.28
2023-05-03T09:26:39.601Z,102272.38
2023-05-03T09:29:06.249Z,102259.03
2023-05-03T09:31:35.149Z,102257.25
2023-05-03T09:34:02.409Z,102259.03
2023-05-03T09:36:44.572Z,102268.34
2023-05-03T09:39:18.451Z,102264.34
2023-05-03T09:41:44.991Z,102262.91
2023-05-03T09:44:12.227Z,102255.44
2023-05-03T09:46:38.867Z,102254.22
2023-05-03T09:49:05.658Z,102249.22
2023-05-03T09:51:32.295Z,102246.44
2023-05-03T09:53:59.350Z,102243.78
2023-05-03T09:56:29.098Z,102248.16
2023-05-03T09:58:55.619Z,102245.94
2023-05-03T10:01:24.863Z,102239.22
2023-05-03T10:03:52.963Z,102231.72
2023-05-03T10:06:30.149Z,102231.44
2023-05-03T10:09:12.164Z,102235.22
2023-05-03T10:11:38.640Z,102229.50
2023-05-03T10:14:07.290Z,102225.75
2023-05-03T10:16:38.794Z,102216.09
2023-05-03T10:19:13.516Z,102220.91
2023-05-03T10:22:06.613Z,102213.88
2023-05-03T10:24:35.351Z,102205.47
2023-05-03T10:27:02.890Z,102205.25
2023-05-03T10:29:36.057Z,102202.63
2023-05-03T10:32:04.134Z,102189.66
2023-05-03T10:34:32.565Z,102195.50
2023-05-03T10:37:02.476Z,102196.81
2023-05-03T10:39:30.884Z,102204.59
2023-05-03T10:41:59.846Z,102200.31
2023-05-03T10:44:27.959Z,102190.19
2023-05-03T10:46:54.839Z,102181.56
2023-05-03T10:49:23.369Z,102183.81
2023-05-03T10:51:50.480Z,102179.88
2023-05-03T10:54:17.655Z,102177.66
2023-05-03T10:56:51.919Z,102183.22
2023-05-03T10:59:18.537Z,102168.34
2023-05-03T11:01:47.222Z,102161.63
2023-05-03T11:04:16.110Z,102162.06
2023-05-03T11:06:42.645Z,102172.13
2023-05-03T11:09:10.311Z,102167.63
2023-05-03T11:11:39.867Z,102171.06
2023-05-03T11:14:08.189Z,102162.19
2023-05-03T11:16:36.714Z,102155.91
2023-05-03T11:19:03.671Z,102159.22
2023-05-03T11:21:31.371Z,102163.69
2023-05-03T11:23:58.612Z,102153.81
2023-05-03T11:26:26.508Z,102154.16
2023-05-03T11:28:54.118Z,102150.41
2023-05-03T11:31:21.112Z,102148.53
2023-05-03T11:33:49.278Z,102152.25
2023-05-03T11:36:16.218Z,102149.66
2023-05-03T11:38:42.632Z,102154.47
2023-05-03T11:41:15.009Z,102146.81
2023-05-03T11:43:46.025Z,102136.28
2023-05-03T11:46:24.831Z,102142.88
2023-05-03T11:48:51.484Z,102132.06
2023-05-03T11:51:24.726Z,102143.09
2023-05-03T11:53:51.960Z,102130.84
2023-05-03T11:56:20.495Z,102123.06
2023-05-03T11:59:00.047Z,102119.28
2023-05-03T12:01:28.663Z,102129.31
2023-05-03T12:04:01.213Z,102125.34
2023-05-03T12:06:32.179Z,102112.06
2023-05-03T12:09:01.294Z,102113.06
2023-05-03T12:11:30.873Z,102111.16
2023-05-03T12:14:03.433Z,102099.69
2023-05-03T12:16:50.850Z,102099.25
2023-05-03T12:19:26.466Z,102093.19
2023-05-03T12:22:09.437Z,102101.53
2023-05-03T12:24:39.964Z,102097.13
2023-05-03T12:27:08.692Z,102091.06
2023-05-03T12:29:35.727Z,102097.34
2023-05-03T12:32:04.314Z,102092.19
2023-05-03T12:34:35.542Z,102093.22
2023-05-03T12:37:05.765Z,102086.38
2023-05-03T12:39:33.431Z,102083.34
2023-05-03T12:44:31.722Z,102073.38
2023-05-03T12:47:01.858Z,102073.47
2023-05-03T12:49:28.794Z,102075.59
2023-05-03T12:52:23.402Z,102064.06
2023-05-03T12:54:48.827Z,102066.53
2023-05-03T12:57:22.082Z,102055.09
2023-05-03T12:59:56.202Z,102059.50
2023-05-03T13:05:00.372Z,102039.28
2023-05-03T13:07:30.430Z,102040.63
2023-05-03T13:12:28.416Z,102034.97
2023-05-03T13:14:55.401Z,102028.41
2023-05-03T13:17:23.214Z,102017.16
2023-05-03T13:19:51.333Z,102010.91
2023-05-03T13:22:18.380Z,102006.50
2023-05-03T13:24:46.575Z,102007.13
2023-05-03T13:27:13.172Z,101993.72
2023-05-03T13:29:40.018Z,101993.75
2023-05-03T13:32:06.988Z,101989.84
2023-05-03T13:34:34.108Z,101989.28
2023-05-03T13:37:01.896Z,101992.03
2023-05-03T13:39:28.371Z,101984.66
2023-05-03T13:41:54.776Z,101984.94
2023-05-03T13:44:25.140Z,101985.84
2023-05-03T13:46:55.704Z,101983.38
2023-05-03T13:49:22.365Z,101982.28
2023-05-03T13:51:48.889Z,101976.22
2023-05-03T13:54:15.430Z,101969.34
2023-05-03T13:56:42.995Z,101958.59
2023-05-03T13:59:12.388Z,101956.41
2023-05-03T14:01:39.173Z,101958.84
2023-05-03T14:04:06.019Z,101953.88
2023-05-03T14:06:33.542Z,101952.28
2023-05-03T14:09:01.682Z,101950.06
2023-05-03T14:11:29.899Z,101948.94
2023-05-03T14:13:57.973Z,101948.91
2023-05-03T14:16:40.122Z,101935.66
2023-05-03T14:19:07.522Z,101932.81
2023-05-03T14:21:34.126Z,101934.00
2023-05-03T14:24:01.066Z,101924.81
2023-05-03T14:26:29.325Z,101918.47
2023-05-03T14:28:56.084Z,101907.44
2023-05-03T14:31:22.705Z,101909.00
2023-05-03T14:33:49.359Z,101908.81
2023-05-03T14:36:15.891Z,101902.13
2023-05-03T14:38:42.284Z,101899.09
2023-05-03T14:41:09.348Z,101892.34
2023-05-03T14:43:35.759Z,101893.94
2023-05-03T14:46:02.347Z,101883.50
2023-05-03T14:48:28.939Z,101890.75
2023-05-03T14:50:56.287Z,101881.03
2023-05-03T14:53:23.379Z,101880.53
2023-05-03T14:55:50.174Z,101878.13
2023-05-03T14:58:16.788Z,101868.31
2023-05-03T15:00:43.509Z,101870.84
2023-05-03T15:03:12.138Z,101866.75
2023-05-03T15:05:43.501Z,101868.97
2023-05-03T15:08:10.585Z,101867.84
2023-05-03T15:10:39.997Z,101870.06
2023-05-03T15:13:06.740Z,101871.94
2023-05-03T15:15:33.293Z,101868.03
2023-05-03T15:17:59.699Z,101860.22
2023-05-03T15:20:26.231Z,101857.81
2023-05-03T15:22:52.735Z,101857.50
2023-05-03T15:25:19.306Z,101858.00
2023-05-03T15:27:45.775Z,101852.81
2023-05-03T15:30:14.702Z,101848.38
2023-05-03T15:32:41.119Z,101849.19
2023-05-03T15:35:07.794Z,101852.03
2023-05-03T15:37:38.508Z,101840.25
2023-05-03T15:40:06.310Z,101850.81
2023-05-03T15:42:32.909Z,101843.03
2023-05-03T15:44:59.450Z,101841.38
2023-05-03T15:47:26.852Z,101849.28
2023-05-03T15:49:53.507Z,101843.44
2023-05-03T15:52:19.970Z,101848.06
2023-05-03T15:54:46.942Z,101841.81
2023-05-03T15:57:13.836Z,101851.72
2023-05-03T15:59:40.648Z,101846.78
2023-05-03T16:02:07.480Z,101842.16
2023-05-03T16:04:34.055Z,101841.81
2023-05-03T16:07:00.506Z,101833.75
2023-05-03T16:09:28.667Z,101837.88
2023-05-03T16:11:54.998Z,101825.16
2023-05-03T16:14:22.223Z,101833.34
2023-05-03T16:16:49.842Z,101829.72
2023-05-03T16:19:16.902Z,101826.25
2023-05-03T16:21:43.639Z,101822.88
2023-05-03T16:24:10.726Z,101827.34
2023-05-03T16:26:37.230Z,101827.47
2023-05-03T16:29:04.056Z,101828.53
2023-05-03T16:31:31.318Z,101815.75
2023-05-03T16:33:57.887Z,101812.44
2023-05-03T16:36:24.470Z,101809.09
2023-05-03T16:38:50.995Z,101806.41
2023-05-03T16:41:17.345Z,101814.16
2023-05-03T16:43:43.792Z,101810.06
2023-05-03T16:46:10.229Z,101811.63
2023-05-03T16:48:36.996Z,101811.09
2023-05-03T16:51:03.656Z,101805.06
2023-05-03T16:53:31.300Z,101809.22
2023-05-03T16:55:57.778Z,101804.59
2023-05-03T16:58:24.310Z,101801.00
2023-05-03T17:00:51.176Z,101796.63
2023-05-03T17:03:18.069Z,101804.59
2023-05-03T17:05:44.662Z,101815.94
2023-05-03T17:08:12.005Z,101806.31
2023-05-03T17:10:39.147Z,101802.81
2023-05-03T17:13:06.413Z,101815.19
2023-05-03T17:15:33.007Z,101803.63
2023-05-03T17:18:01.935Z,101795.38
2023-05-03T17:20:30.194Z,101797.03
2023-05-03T17:22:56.661Z,101798.13
2023-05-03T17:25:23.101Z,101799.50
2023-05-03T17:27:51.754Z,101804.19
2023-05-03T17:30:21.662Z,101797.88
2023-05-03T17:32:48.517Z,101807.47
2023-05-03T17:35:15.140Z,101795.13
2023-05-03T17:37:41.589Z,101798.13
2023-05-03T17:40:08.681Z,101803.03
2023-05-03T17:42:35.233Z,101794.53
2023-05-03T17:45:02.665Z,101798.09
2023-05-03T17:47:29.356Z,101794.22
2023-05-03T17:49:56.409Z,101796.75
2023-05-03T17:52:22.984Z,101805.22
2023-05-03T17:54:52.019Z,101795.31
2023-05-03T17:57:20.618Z,101798.31
2023-05-03T17:59:48.429Z,101797.19
2023-05-03T18:02:14.918Z,101802.31
2023-05-03T18:04:41.456Z,101797.91
2023-05-03T18:07:08.042Z,101800.63
2023-05-03T18:09:34.392Z,101803.88
2023-05-03T18:12:03.411Z,101796.72
2023-05-03T18:14:30.276Z,101790.94
2023-05-03T18:16:56.712Z,101804.97
2023-05-03T18:19:23.906Z,101798.56
2023-05-03T18:21:50.378Z,101798.28
2023-05-03T18:24:16.838Z,101806.16
2023-05-03T18:26:43.283Z,101803.66
2023-05-03T18:29:09.984Z,101803.34
2023-05-03T18:31:36.507Z,101794.00
2023-05-03T18:34:03.205Z,101808.47
2023-05-03T18:36:29.638Z,101806.53
2023-05-03T18:38:56.068Z,101798.47
2023-05-03T18:41:24.443Z,101802.81
2023-05-03T18:43:52.048Z,101805.00
2023-05-03T18:46:19.771Z,101800.56
2023-05-03T18:48:47.580Z,101800.03
2023-05-03T18:51:14.446Z,101797.19
2023-05-03T18:53:41.049Z,101812.19
2023-05-03T18:56:07.474Z,101813.03
2023-05-03T18:58:33.970Z,101816.25
2023-05-03T19:01:00.738Z,101814.53
2023-05-03T19:03:29.431Z,101805.25
2023-05-03T19:05:59.660Z,101803.38
2023-05-03T19:08:26.052Z,101809.13
2023-05-03T19:10:52.408Z,101806.03
2023-05-03T19:13:19.577Z,101807.91
2023-05-03T19:15:46.870Z,101809.28
2023-05-03T19:18:15.378Z,101813.50
2023-05-03T19:20:43.238Z,101811.00
2023-05-03T19:23:09.697Z,101817.56
2023-05-03T19:25:36.235Z,101816.69
2023-05-03T19:28:04.397Z,101810.19
2023-05-03T19:30:30.890Z,101815.03
2023-05-03T19:32:57.357Z,101816.88
2023-05-03T19:35:23.894Z,101824.25
2023-05-03T19:37:50.275Z,101819.25
2023-05-03T19:40:16.786Z,101812.47
2023-05-03T19:42:43.276Z,101816.84
2023-05-03T19:45:09.982Z,101819.69
2023-05-03T19:47:36.383Z,101822.88
2023-05-03T19:50:03.188Z,101815.78
2023-05-03T19:52:29.845Z,101818.44
2023-05-03T19:54:57.320Z,101816.19
2023-05-03T19:57:23.939Z,101813.63
2023-05-03T19:59:50.941Z,101818.16
2023-05-03T20:02:18.425Z,101810.44
2023-05-03T20:04:44.823Z,101814.66
2023-05-03T20:07:11.268Z,101810.66
2023-05-03T20:09:37.774Z,101811.00
2023-05-03T20:12:04.587Z,101818.09
2023-05-03T20:14:32.375Z,101814.91
2023-05-03T20:16:59.016Z,101818.53
2023-05-03T20:19:25.817Z,101815.81
2023-05-03T20:21:52.672Z,101815.69
2023-05-03T20:24:20.844Z,101815.19
2023-05-03T20:26:47.327Z,101819.50
2023-05-03T20:29:13.904Z,101818.50
2023-05-03T20:31:40.600Z,101827.81
2023-05-03T20:34:07.048Z,101825.16
2023-05-03T20:36:33.486Z,101824.47
2023-05-03T20:38:59.967Z,101819.44
2023-05-03T20:41:26.705Z,101820.75
2023-05-03T20:43:54.854Z,101809.88
2023-05-03T20:46:21.426Z,101813.00
2023-05-03T20:48:47.922Z,101807.63
2023-05-03T20:51:14.775Z,101814.41
2023-05-03T20:53:41.431Z,101812.50
2023-05-03T20:56:08.377Z,101820.81
2023-05-03T20:58:35.050Z,101816.31
2023-05-03T21:01:04.123Z,101819.53
2023-05-03T21:03:31.429Z,101811.81
2023-05-03T21:05:57.998Z,101818.28
2023-05-03T21:08:24.595Z,101811.66
2023-05-03T21:10:51.126Z,101819.72
2023-05-03T21:13:17.673Z,101814.53
2023-05-03T21:15:44.172Z,101816.75
2023-05-03T21:18:11.272Z,101816.28
2023-05-03T21:20:38.039Z,101809.91
2023-05-03T21:23:05.409Z,101812.53
2023-05-03T21:25:31.817Z,101809.22
2023-05-03T21:27:58.255Z,101812.41
2023-05-03T21:30:24.777Z,101808.78
2023-05-03T21:32:51.462Z,101809.50
2023-05-03T21:35:18.378Z,101803.56
2023-05-03T21:37:46.568Z,101802.00
2023-05-03T21:40:15.189Z,101795.97
2023-05-03T21:42:42.612Z,101794.44
2023-05-03T21:45:10.068Z,101789.59
2023-05-03T21:47:36.440Z,101783.66
2023-05-03T21:50:05.929Z,101787.56
2023-05-03T21:52:33.638Z,101789.22
2023-05-03T21:55:00.345Z,101782.09
2023-05-03T21:57:26.805Z,101781.53
2023-05-03T21:59:56.421Z,101770.91
2023-05-03T22:02:23.221Z,101770.81
2023-05-03T22:04:50.634Z,101770.09
2023-05-03T22:07:17.421Z,101773.91
2023-05-03T22:09:50.363Z,101768.94
2023-05-03T22:12:23.347Z,101772.16
2023-05-03T22:14:51.103Z,101768.22
2023-05-03T22:17:17.707Z,101766.25
2023-05-03T22:19:44.652Z,101765.81
2023-05-03T22:22:11.400Z,101773.41
2023-05-03T22:24:38.568Z,101781.59
2023-05-03T22:27:04.904Z,101774.81
2023-05-03T22:29:31.427Z,101778.63
2023-05-03T22:31:58.015Z,101770.69
2023-05-03T22:34:24.419Z,101765.69
2023-05-03T22:36:50.799Z,101771.97
2023-05-03T22:39:17.394Z,101775.16
2023-05-03T22:41:44.704Z,101770.75
2023-05-03T22:44:11.085Z,101769.22
2023-05-03T22:46:37.629Z,101771.69
2023-05-03T22:49:04.760Z,101776.78
2023-05-03T22:51:32.419Z,101775.56
2023-05-03T22:53:58.878Z,101776.28
2023-05-03T22:56:25.258Z,101780.75
2023-05-03T22:58:51.718Z,101775.19
2023-05-03T23:01:18.603Z,101768.28
2023-05-03T23:03:45.129Z,101772.22
2023-05-03T23:06:11.625Z,101769.47
2023-05-03T23:08:38.454Z,101768.03
2023-05-03T23:11:05.202Z,101761.38
2023-05-03T23:13:31.680Z,101769.47
2023-05-03T23:15:58.672Z,101768.50
2023-05-03T23:18:25.034Z,101767.16
2023-05-03T23:20:52.450Z,101768.16
2023-05-03T23:23:19.571Z,101767.72
2023-05-03T23:25:46.511Z,101765.75
2023-05-03T23:28:13.133Z,101761.81
2023-05-03T23:30:44.006Z,101758.03
2023-05-03T23:33:11.409Z,101760.00
2023-05-03T23:35:38.501Z,101762.13
2023-05-03T23:38:05.100Z,101755.50
2023-05-03T23:40:31.535Z,101762.97
2023-05-03T23:42:58.060Z,101752.34
2023-05-03T23:45:24.634Z,101748.16
2023-05-03T23:47:51.062Z,101747.38
2023-05-03T23:50:17.645Z,101750.19
2023-05-03T23:52:44.041Z,101745.31
2023-05-03T23:55:10.741Z,101740.16
2023-05-03T23:57:38.714Z,101744.16
